createdAt,value
2019-01-08T00:00:42.377Z,5.70
2019-01-08T00:01:47.503Z,5.70
2019-01-08T00:02:52.541Z,5.70
2019-01-08T00:03:57.678Z,5.70
2019-01-08T00:05:02.768Z,5.70
2019-01-08T00:06:07.958Z,5.70
2019-01-08T00:07:13.055Z,5.70
2019-01-08T00:08:18.198Z,5.70
2019-01-08T00:09:23.280Z,5.70
2019-01-08T00:10:28.298Z,5.70
2019-01-08T00:11:33.483Z,5.70
2019-01-08T00:12:38.512Z,5.70
2019-01-08T00:13:43.644Z,5.70
2019-01-08T00:14:48.720Z,5.70
2019-01-08T00:15:53.840Z,5.70
2019-01-08T00:16:58.848Z,5.70
2019-01-08T00:18:03.947Z,5.60
2019-01-08T00:19:09.027Z,5.60
2019-01-08T00:20:14.128Z,5.60
2019-01-08T00:21:19.252Z,5.60
2019-01-08T00:22:24.383Z,5.60
2019-01-08T00:23:29.509Z,5.60
2019-01-08T00:24:34.587Z,5.60
2019-01-08T00:25:39.681Z,5.60
2019-01-08T00:26:44.696Z,5.60
2019-01-08T00:27:49.789Z,5.60
2019-01-08T00:28:54.890Z,5.50
2019-01-08T00:29:59.999Z,5.50
2019-01-08T00:31:05.182Z,5.50
2019-01-08T00:32:10.359Z,5.40
2019-01-08T00:33:15.469Z,5.40
2019-01-08T00:34:20.570Z,5.40
2019-01-08T00:35:25.662Z,5.40
2019-01-08T00:36:30.727Z,5.40
2019-01-08T00:37:35.773Z,5.40
2019-01-08T00:38:40.889Z,5.40
2019-01-08T00:39:45.981Z,5.40
2019-01-08T00:40:51.102Z,5.40
2019-01-08T00:41:56.103Z,5.40
2019-01-08T00:43:01.159Z,5.40
2019-01-08T00:44:06.321Z,5.40
2019-01-08T00:45:11.458Z,5.40
2019-01-08T00:46:16.615Z,5.40
2019-01-08T00:47:21.634Z,5.40
2019-01-08T00:48:26.653Z,5.40
2019-01-08T00:49:31.689Z,5.40
2019-01-08T00:50:36.779Z,5.40
2019-01-08T00:51:41.909Z,5.50
2019-01-08T00:52:47.008Z,5.40
2019-01-08T00:53:52.049Z,5.50
2019-01-08T00:54:57.053Z,5.40
2019-01-08T00:56:02.068Z,5.40
2019-01-08T00:57:07.129Z,5.40
2019-01-08T00:58:12.150Z,5.40
2019-01-08T00:59:17.278Z,5.40
2019-01-08T01:00:22.344Z,5.40
2019-01-08T01:01:27.427Z,5.40
2019-01-08T01:02:32.509Z,5.40
2019-01-08T01:03:37.610Z,5.40
2019-01-08T01:04:42.669Z,5.40
2019-01-08T01:05:47.729Z,5.40
2019-01-08T01:06:52.808Z,5.50
2019-01-08T01:07:57.889Z,5.50
2019-01-08T01:09:03.089Z,5.50
2019-01-08T01:10:09.339Z,5.50
2019-01-08T01:11:14.447Z,5.60
2019-01-08T01:12:19.534Z,5.60
2019-01-08T01:13:24.552Z,5.50
2019-01-08T01:14:29.561Z,5.60
2019-01-08T01:15:34.597Z,5.60
2019-01-08T01:16:39.703Z,5.60
2019-01-08T01:17:44.693Z,5.60
2019-01-08T01:18:49.702Z,5.50
2019-01-08T01:19:54.706Z,5.50
2019-01-08T01:20:59.828Z,5.50
2019-01-08T01:22:04.952Z,5.50
2019-01-08T01:23:10.041Z,5.40
2019-01-08T01:24:15.067Z,5.50
2019-01-08T01:25:20.155Z,5.50
2019-01-08T01:26:25.241Z,5.50
2019-01-08T01:27:30.289Z,5.50
2019-01-08T01:28:35.378Z,5.50
2019-01-08T01:29:40.466Z,5.50
2019-01-08T01:30:45.548Z,5.50
2019-01-08T01:31:50.577Z,5.50
2019-01-08T01:32:55.809Z,5.60
2019-01-08T01:34:00.884Z,5.60
2019-01-08T01:35:05.912Z,5.60
2019-01-08T01:36:11.017Z,5.60
2019-01-08T01:37:16.097Z,5.60
2019-01-08T01:38:21.245Z,5.60
2019-01-08T01:39:26.352Z,5.60
2019-01-08T01:40:31.440Z,5.60
2019-01-08T01:41:36.482Z,5.60
2019-01-08T01:42:41.488Z,5.60
2019-01-08T01:43:46.555Z,5.50
2019-01-08T01:44:51.664Z,5.60
2019-01-08T01:45:56.699Z,5.50
2019-01-08T01:47:01.786Z,5.60
2019-01-08T01:48:06.930Z,5.60
2019-01-08T01:49:12.026Z,5.60
2019-01-08T01:50:17.040Z,5.60
2019-01-08T01:51:22.084Z,5.60
2019-01-08T01:52:27.173Z,5.60
2019-01-08T02:01:40.725Z,5.40
2019-01-08T02:02:46.137Z,5.30
2019-01-08T02:03:51.403Z,5.30
2019-01-08T02:04:57.891Z,5.30
2019-01-08T02:06:03.310Z,5.30
2019-01-08T02:07:08.496Z,5.30
2019-01-08T02:08:13.830Z,5.30
2019-01-08T02:09:18.960Z,5.40
2019-01-08T02:10:24.059Z,5.40
2019-01-08T02:11:29.337Z,5.40
2019-01-08T02:12:34.357Z,5.40
2019-01-08T02:13:39.455Z,5.50
2019-01-08T02:14:44.555Z,5.40
2019-01-08T02:15:49.556Z,5.50
2019-01-08T02:16:54.549Z,5.50
2019-01-08T02:17:59.652Z,5.50
2019-01-08T02:19:04.750Z,5.50
2019-01-08T02:20:09.763Z,5.60
2019-01-08T02:21:14.792Z,5.60
2019-01-08T02:22:19.877Z,5.60
2019-01-08T02:23:24.956Z,5.60
2019-01-08T02:24:29.963Z,5.70
2019-01-08T02:25:35.048Z,5.70
2019-01-08T02:26:40.165Z,5.70
2019-01-08T02:27:45.240Z,5.80
2019-01-08T02:28:50.348Z,5.80
2019-01-08T02:29:55.420Z,5.80
2019-01-08T02:31:00.497Z,5.80
2019-01-08T02:32:05.505Z,5.80
2019-01-08T02:33:10.599Z,5.80
2019-01-08T02:34:15.620Z,5.80
2019-01-08T02:35:20.872Z,5.80
2019-01-08T02:36:25.931Z,5.80
2019-01-08T02:37:31.364Z,5.80
2019-01-08T02:38:36.362Z,5.90
2019-01-08T02:39:41.391Z,5.90
2019-01-08T02:40:46.466Z,5.90
2019-01-08T02:41:51.685Z,6.00
2019-01-08T02:42:56.841Z,6.00
2019-01-08T02:44:02.073Z,6.00
2019-01-08T02:45:07.161Z,6.10
2019-01-08T02:46:12.361Z,6.10
2019-01-08T02:47:17.505Z,6.10
2019-01-08T02:48:22.941Z,6.10
2019-01-08T02:49:27.980Z,6.10
2019-01-08T02:50:32.984Z,6.10
2019-01-08T02:51:38.009Z,6.10
2019-01-08T02:52:43.097Z,6.10
2019-01-08T02:53:48.188Z,6.20
2019-01-08T02:54:53.489Z,6.20
2019-01-08T02:55:58.568Z,6.20
2019-01-08T02:57:03.585Z,6.20
2019-01-08T02:58:08.884Z,6.20
2019-01-08T02:59:13.972Z,6.30
2019-01-08T03:00:19.052Z,6.30
2019-01-08T03:01:24.150Z,6.20
2019-01-08T03:02:29.174Z,6.30
2019-01-08T03:03:34.260Z,6.30
2019-01-08T03:04:39.372Z,6.30
2019-01-08T03:05:44.392Z,6.30
2019-01-08T03:06:49.521Z,6.40
2019-01-08T03:07:54.548Z,6.40
2019-01-08T03:08:59.620Z,6.40
2019-01-08T03:10:05.086Z,6.40
2019-01-08T03:11:10.085Z,6.40
2019-01-08T03:12:15.192Z,6.50
2019-01-08T03:13:20.211Z,6.50
2019-01-08T03:14:25.223Z,6.50
2019-01-08T03:15:30.326Z,6.50
2019-01-08T03:16:35.403Z,6.50
2019-01-08T03:17:40.517Z,6.60
2019-01-08T03:18:45.592Z,6.60
2019-01-08T03:19:51.753Z,6.60
2019-01-08T03:20:58.381Z,6.70
2019-01-08T03:22:03.399Z,6.70
2019-01-08T03:23:08.432Z,6.70
2019-01-08T03:24:13.467Z,6.80
2019-01-08T03:25:18.578Z,6.80
2019-01-08T03:26:23.685Z,6.80
2019-01-08T03:27:28.712Z,6.80
2019-01-08T03:28:33.817Z,6.90
2019-01-08T03:29:38.900Z,6.90
2019-01-08T03:30:44.006Z,6.80
2019-01-08T03:31:49.097Z,6.90
2019-01-08T03:32:54.121Z,6.90
2019-01-08T03:33:59.192Z,6.90
2019-01-08T03:35:04.548Z,7.00
2019-01-08T03:36:09.693Z,7.00
2019-01-08T03:37:14.777Z,7.00
2019-01-08T03:38:19.873Z,7.00
2019-01-08T03:39:24.899Z,7.10
2019-01-08T03:40:30.028Z,7.10
2019-01-08T03:41:35.154Z,7.20
2019-01-08T03:42:40.280Z,7.20
2019-01-08T03:43:45.405Z,7.10
2019-01-08T03:44:50.497Z,7.20
2019-01-08T03:45:55.513Z,7.20
2019-01-08T03:47:02.534Z,7.20
2019-01-08T03:48:07.326Z,7.20
2019-01-08T03:49:12.593Z,7.20
2019-01-08T03:50:17.704Z,7.30
2019-01-08T03:51:22.800Z,7.20
2019-01-08T03:52:27.936Z,7.20
2019-01-08T03:53:33.340Z,7.20
2019-01-08T03:54:38.525Z,7.20
2019-01-08T03:55:43.628Z,7.30
2019-01-08T03:56:48.755Z,7.20
2019-01-08T03:57:53.862Z,7.30
2019-01-08T03:58:58.964Z,7.20
2019-01-08T04:00:04.869Z,7.30
2019-01-08T04:01:11.341Z,7.30
2019-01-08T04:02:16.450Z,7.30
2019-01-08T04:03:21.545Z,7.30
2019-01-08T04:04:26.633Z,7.30
2019-01-08T04:05:31.637Z,7.30
2019-01-08T04:06:38.001Z,7.30
2019-01-08T04:07:42.995Z,7.40
2019-01-08T04:08:48.039Z,7.40
2019-01-08T04:09:53.147Z,7.40
2019-01-08T04:10:58.284Z,7.40
2019-01-08T04:12:03.665Z,7.40
2019-01-08T04:13:08.764Z,7.30
2019-01-08T04:14:13.884Z,7.30
2019-01-08T04:15:18.930Z,7.30
2019-01-08T04:16:24.009Z,7.30
2019-01-08T04:17:29.249Z,7.40
2019-01-08T04:18:34.400Z,7.40
2019-01-08T04:19:39.438Z,7.40
2019-01-08T04:20:44.541Z,7.40
2019-01-08T04:21:49.650Z,7.40
2019-01-08T04:22:55.628Z,7.40
2019-01-08T04:24:00.688Z,7.40
2019-01-08T04:25:05.799Z,7.40
2019-01-08T04:26:11.023Z,7.40
2019-01-08T04:27:17.253Z,7.40
2019-01-08T04:28:22.358Z,7.40
2019-01-08T04:29:27.365Z,7.40
2019-01-08T04:30:32.533Z,7.50
2019-01-08T04:31:37.619Z,7.40
2019-01-08T04:32:42.620Z,7.40
2019-01-08T04:33:47.712Z,7.40
2019-01-08T04:34:52.806Z,7.40
2019-01-08T04:35:57.960Z,7.40
2019-01-08T04:37:03.035Z,7.40
2019-01-08T04:38:09.106Z,7.40
2019-01-08T04:39:14.225Z,7.40
2019-01-08T04:40:19.297Z,7.40
2019-01-08T04:41:24.417Z,7.40
2019-01-08T04:42:30.579Z,7.40
2019-01-08T04:43:35.629Z,7.50
2019-01-08T04:44:40.708Z,7.50
2019-01-08T04:45:45.720Z,7.40
2019-01-08T04:46:50.759Z,7.40
2019-01-08T04:47:55.852Z,7.50
2019-01-08T04:49:00.956Z,7.50
2019-01-08T04:50:06.249Z,7.50
2019-01-08T04:51:11.325Z,7.50
2019-01-08T04:52:16.381Z,7.60
2019-01-08T04:53:21.474Z,7.60
2019-01-08T04:54:26.594Z,7.50
2019-01-08T04:55:31.681Z,7.50
2019-01-08T04:56:38.073Z,7.50
2019-01-08T04:57:43.207Z,7.60
2019-01-08T04:58:48.331Z,7.60
2019-01-08T04:59:58.975Z,7.60
2019-01-08T05:01:00.262Z,7.60
2019-01-08T05:02:05.468Z,7.60
2019-01-08T05:03:10.593Z,7.60
2019-01-08T05:04:15.673Z,7.60
2019-01-08T05:05:20.710Z,7.60
2019-01-08T05:06:25.933Z,7.60
2019-01-08T05:07:30.952Z,7.60
2019-01-08T05:08:36.034Z,7.60
2019-01-08T05:09:41.146Z,7.60
2019-01-08T05:10:46.350Z,7.60
2019-01-08T05:11:51.769Z,7.60
2019-01-08T05:12:56.781Z,7.50
2019-01-08T05:14:01.865Z,7.50
2019-01-08T05:15:07.048Z,7.50
2019-01-08T05:16:12.196Z,7.50
2019-01-08T05:17:17.301Z,7.50
2019-01-08T05:18:22.387Z,7.50
2019-01-08T05:19:27.469Z,7.60
2019-01-08T05:20:32.527Z,7.60
2019-01-08T05:21:37.556Z,7.60
2019-01-08T05:22:42.645Z,7.60
2019-01-08T05:23:47.732Z,7.60
2019-01-08T05:24:52.850Z,7.60
2019-01-08T05:25:57.972Z,7.60
2019-01-08T05:27:02.984Z,7.60
2019-01-08T05:28:08.155Z,7.50
2019-01-08T05:29:14.310Z,7.60
2019-01-08T05:30:19.348Z,7.60
2019-01-08T05:31:24.476Z,7.60
2019-01-08T05:32:31.660Z,7.50
2019-01-08T05:33:36.744Z,7.60
2019-01-08T05:34:42.191Z,7.50
2019-01-08T05:35:47.291Z,7.50
2019-01-08T05:36:52.389Z,7.50
2019-01-08T05:37:58.485Z,7.50
2019-01-08T05:39:04.508Z,7.50
2019-01-08T05:40:09.531Z,7.50
2019-01-08T05:41:14.676Z,7.50
2019-01-08T05:42:19.772Z,7.50
2019-01-08T05:43:24.796Z,7.50
2019-01-08T05:44:29.812Z,7.40
2019-01-08T05:45:34.912Z,7.40
2019-01-08T05:46:40.012Z,7.40
2019-01-08T05:47:45.145Z,7.50
2019-01-08T05:48:50.265Z,7.40
2019-01-08T05:49:55.368Z,7.40
2019-01-08T05:51:00.399Z,7.40
2019-01-08T05:52:05.423Z,7.50
2019-01-08T05:53:10.505Z,7.50
2019-01-08T05:54:15.545Z,7.40
2019-01-08T05:55:20.557Z,7.50
2019-01-08T05:56:25.602Z,7.50
2019-01-08T05:57:30.699Z,7.40
2019-01-08T05:58:35.812Z,7.40
2019-01-08T05:59:40.900Z,7.40
2019-01-08T06:00:46.036Z,7.40
2019-01-08T06:01:51.184Z,7.40
2019-01-08T06:02:56.228Z,7.40
2019-01-08T06:04:01.417Z,7.40
2019-01-08T06:05:06.461Z,7.40
2019-01-08T06:06:11.547Z,7.40
2019-01-08T06:07:16.678Z,7.40
2019-01-08T06:08:21.745Z,7.30
2019-01-08T06:09:26.776Z,7.30
2019-01-08T06:10:31.784Z,7.30
2019-01-08T06:11:36.859Z,7.20
2019-01-08T06:12:41.883Z,7.20
2019-01-08T06:13:46.909Z,7.20
2019-01-08T06:14:52.004Z,7.20
2019-01-08T06:15:57.414Z,7.20
2019-01-08T06:17:02.512Z,7.10
2019-01-08T06:18:07.647Z,7.00
2019-01-08T06:19:12.674Z,7.10
2019-01-08T06:20:17.659Z,7.10
2019-01-08T06:21:22.661Z,7.10
2019-01-08T06:22:27.699Z,7.00
2019-01-08T06:23:32.814Z,7.00
2019-01-08T06:24:37.840Z,7.00
2019-01-08T06:25:42.883Z,7.00
2019-01-08T06:26:47.889Z,7.10
2019-01-08T06:27:53.141Z,7.10
2019-01-08T06:28:58.256Z,7.10
2019-01-08T06:30:03.361Z,7.10
2019-01-08T06:31:08.457Z,7.10
2019-01-08T06:32:13.502Z,7.10
2019-01-08T06:33:18.631Z,7.10
2019-01-08T06:34:23.756Z,7.20
2019-01-08T06:35:28.860Z,7.20
2019-01-08T06:36:33.904Z,7.20
2019-01-08T06:37:38.926Z,7.20
2019-01-08T06:38:43.955Z,7.30
2019-01-08T06:39:49.103Z,7.20
2019-01-08T06:40:57.742Z,7.30
2019-01-08T06:42:00.964Z,7.30
2019-01-08T06:43:05.984Z,7.30
2019-01-08T06:44:11.179Z,7.30
2019-01-08T06:45:16.181Z,7.30
2019-01-08T06:46:21.280Z,7.30
2019-01-08T06:47:26.489Z,7.30
2019-01-08T06:48:31.583Z,7.30
2019-01-08T06:49:36.659Z,7.30
2019-01-08T06:50:41.670Z,7.30
2019-01-08T06:51:46.776Z,7.40
2019-01-08T06:52:51.925Z,7.40
2019-01-08T06:53:56.967Z,7.40
2019-01-08T06:55:02.089Z,7.40
2019-01-08T06:56:07.196Z,7.40
2019-01-08T06:57:12.297Z,7.40
2019-01-08T06:58:17.367Z,7.40
2019-01-08T06:59:22.493Z,7.40
2019-01-08T07:00:33.197Z,7.40
2019-01-08T07:01:34.389Z,7.40
2019-01-08T07:02:39.432Z,7.40
2019-01-08T07:03:44.517Z,7.40
2019-01-08T07:04:49.731Z,7.40
2019-01-08T07:05:54.781Z,7.30
2019-01-08T07:06:59.904Z,7.30
2019-01-08T07:08:05.045Z,7.30
2019-01-08T07:09:10.051Z,7.30
2019-01-08T07:10:15.152Z,7.30
2019-01-08T07:11:20.273Z,7.30
2019-01-08T07:12:25.357Z,7.30
2019-01-08T07:13:30.472Z,7.30
2019-01-08T07:14:35.565Z,7.30
2019-01-08T07:15:40.702Z,7.30
2019-01-08T07:16:45.867Z,7.30
2019-01-08T07:17:50.963Z,7.30
2019-01-08T07:18:55.969Z,7.20
2019-01-08T07:20:01.111Z,7.20
2019-01-08T07:21:06.123Z,7.20
2019-01-08T07:22:11.156Z,7.10
2019-01-08T07:23:16.252Z,7.10
2019-01-08T07:24:21.379Z,7.10
2019-01-08T07:25:26.517Z,7.10
2019-01-08T07:26:31.652Z,7.10
2019-01-08T07:27:36.751Z,7.10
2019-01-08T07:28:41.871Z,7.10
2019-01-08T07:29:46.888Z,7.10
2019-01-08T07:30:51.996Z,7.00
2019-01-08T07:31:57.105Z,7.00
2019-01-08T07:33:02.212Z,7.00
2019-01-08T07:34:07.321Z,7.00
2019-01-08T07:35:12.412Z,7.00
2019-01-08T07:36:17.521Z,7.00
2019-01-08T07:37:22.628Z,6.90
2019-01-08T07:38:27.725Z,6.90
2019-01-08T07:39:32.879Z,6.90
2019-01-08T07:40:37.912Z,7.00
2019-01-08T07:41:43.046Z,6.90
2019-01-08T07:42:48.153Z,6.90
2019-01-08T07:43:53.256Z,6.90
2019-01-08T07:44:58.250Z,6.90
2019-01-08T07:46:03.353Z,6.90
2019-01-08T07:47:08.455Z,6.90
2019-01-08T07:48:24.860Z,6.90
2019-01-08T07:49:41.160Z,6.80
2019-01-08T07:50:57.969Z,6.90
2019-01-08T07:52:14.465Z,6.90
2019-01-08T07:53:31.592Z,6.90
2019-01-08T07:54:47.996Z,6.90
2019-01-08T07:56:04.404Z,6.90
2019-01-08T07:57:21.144Z,6.90
2019-01-08T07:58:37.513Z,6.90
2019-01-08T07:59:53.918Z,6.90
2019-01-08T08:01:10.758Z,6.90
2019-01-08T08:02:27.189Z,6.90
2019-01-08T08:03:43.976Z,6.90
2019-01-08T08:05:00.735Z,7.00
2019-01-08T08:06:17.022Z,7.00
2019-01-08T08:07:33.496Z,7.10
2019-01-08T08:08:49.844Z,7.10
2019-01-08T08:10:06.317Z,7.20
2019-01-08T08:11:22.764Z,7.10
2019-01-08T08:12:39.364Z,7.20
2019-01-08T08:13:55.680Z,7.10
2019-01-08T08:15:12.537Z,7.10
2019-01-08T08:16:29.097Z,7.10
2019-01-08T08:17:46.324Z,7.10
2019-01-08T08:19:02.975Z,7.10
2019-01-08T08:20:19.680Z,7.10
2019-01-08T08:21:36.153Z,7.20
2019-01-08T08:22:53.149Z,7.30
2019-01-08T08:24:10.020Z,7.40
2019-01-08T08:25:27.251Z,7.40
2019-01-08T08:26:43.545Z,7.50
2019-01-08T08:28:00.095Z,7.50
2019-01-08T08:29:16.673Z,7.50
2019-01-08T08:30:33.888Z,7.50
2019-01-08T08:31:50.492Z,7.50
2019-01-08T08:33:07.708Z,7.50
2019-01-08T08:34:24.878Z,7.50
2019-01-08T08:35:41.351Z,7.50
2019-01-08T08:36:57.784Z,7.50
2019-01-08T08:38:14.560Z,7.50
2019-01-08T08:39:30.882Z,7.50
2019-01-08T08:40:47.208Z,7.50
2019-01-08T08:42:03.796Z,7.50
2019-01-08T08:43:20.733Z,7.50
2019-01-08T08:44:37.264Z,7.50
2019-01-08T08:45:54.410Z,7.60
2019-01-08T08:47:11.627Z,7.50
2019-01-08T08:48:28.029Z,7.50
2019-01-08T08:49:45.881Z,7.50
2019-01-08T08:51:02.199Z,7.40
2019-01-08T08:52:18.620Z,7.40
2019-01-08T08:53:36.002Z,7.60
2019-01-08T08:54:52.542Z,8.20
2019-01-08T08:56:09.181Z,9.10
2019-01-08T08:57:25.704Z,9.90
2019-01-08T08:58:42.532Z,10.70
2019-01-08T08:59:59.008Z,11.50
2019-01-08T09:01:15.477Z,12.10
2019-01-08T09:02:31.905Z,12.70
2019-01-08T09:03:47.131Z,13.40
2019-01-08T09:05:11.322Z,14.10
2019-01-08T09:06:28.082Z,14.60
2019-01-08T09:07:45.051Z,15.20
2019-01-08T09:09:01.341Z,15.70
2019-01-08T09:10:19.821Z,16.00
2019-01-08T09:11:36.528Z,16.50
2019-01-08T09:12:52.954Z,16.90
2019-01-08T09:14:09.397Z,17.10
2019-01-08T09:15:26.197Z,17.10
2019-01-08T09:16:42.633Z,17.30
2019-01-08T09:17:59.416Z,17.80
2019-01-08T09:19:15.685Z,18.20
2019-01-08T09:20:32.281Z,18.40
2019-01-08T09:21:48.673Z,18.60
2019-01-08T09:23:05.815Z,18.70
2019-01-08T09:24:22.413Z,19.20
2019-01-08T09:25:39.059Z,19.60
2019-01-08T09:26:55.713Z,19.80
2019-01-08T09:28:12.218Z,20.00
2019-01-08T09:29:28.713Z,20.10
2019-01-08T09:30:45.901Z,20.20
2019-01-08T09:32:02.269Z,20.40
2019-01-08T09:34:28.869Z,20.30
2019-01-08T09:35:34.043Z,20.10
2019-01-08T09:36:39.129Z,20.00
2019-01-08T09:37:44.158Z,19.60
2019-01-08T09:38:49.312Z,19.50
2019-01-08T09:39:54.457Z,19.70
2019-01-08T09:40:59.565Z,19.80
2019-01-08T09:42:04.692Z,20.00
2019-01-08T09:43:09.789Z,20.00
2019-01-08T09:44:14.817Z,20.10
2019-01-08T09:45:19.919Z,20.40
2019-01-08T09:46:25.112Z,20.40
2019-01-08T09:47:30.386Z,20.40
2019-01-08T09:48:35.524Z,20.40
2019-01-08T09:49:40.634Z,20.50
2019-01-08T09:50:45.929Z,20.70
2019-01-08T09:51:50.980Z,20.50
2019-01-08T09:52:59.000Z,20.30
2019-01-08T09:54:04.109Z,20.20
2019-01-08T09:55:09.274Z,20.10
2019-01-08T09:56:14.418Z,19.90
2019-01-08T09:57:19.536Z,19.90
2019-01-08T09:58:24.593Z,20.10
2019-01-08T09:59:29.684Z,19.90
2019-01-08T10:00:34.821Z,19.60
2019-01-08T10:01:39.943Z,19.40
2019-01-08T10:02:45.029Z,19.40
2019-01-08T10:03:50.183Z,19.40
2019-01-08T10:04:55.212Z,19.30
2019-01-08T10:06:00.245Z,19.40
2019-01-08T10:07:05.400Z,19.50
2019-01-08T10:08:10.408Z,19.60
2019-01-08T10:09:15.510Z,19.70
2019-01-08T10:10:20.525Z,19.70
2019-01-08T10:11:25.725Z,19.50
2019-01-08T10:12:30.832Z,19.60
2019-01-08T10:13:35.939Z,19.70
2019-01-08T10:14:41.056Z,19.70
2019-01-08T10:15:46.148Z,19.70
2019-01-08T10:16:51.232Z,19.60
2019-01-08T10:17:56.354Z,19.50
2019-01-08T10:19:01.473Z,19.30
2019-01-08T10:20:07.590Z,19.00
2019-01-08T10:21:12.683Z,18.70
2019-01-08T10:22:17.781Z,18.40
2019-01-08T10:23:22.906Z,18.20
2019-01-08T10:24:28.006Z,17.90
2019-01-08T10:25:33.029Z,17.60
2019-01-08T10:26:38.245Z,17.40
2019-01-08T10:27:43.374Z,17.10
2019-01-08T10:28:48.470Z,16.80
2019-01-08T10:29:53.527Z,16.40
2019-01-08T10:30:58.568Z,16.10
2019-01-08T10:32:03.607Z,15.80
2019-01-08T10:33:08.753Z,15.70
2019-01-08T10:34:13.855Z,15.60
2019-01-08T10:35:19.250Z,15.40
2019-01-08T10:36:24.349Z,15.20
2019-01-08T10:37:29.464Z,15.20
2019-01-08T10:38:34.610Z,15.00
2019-01-08T10:39:39.691Z,14.90
2019-01-08T10:40:44.786Z,14.70
2019-01-08T10:41:49.935Z,14.50
2019-01-08T10:42:55.037Z,14.40
2019-01-08T10:44:00.141Z,14.30
2019-01-08T10:45:05.352Z,14.10
2019-01-08T10:46:10.543Z,14.00
2019-01-08T10:47:15.732Z,13.80
2019-01-08T10:48:20.855Z,13.60
2019-01-08T10:49:26.011Z,13.40
2019-01-08T10:50:31.235Z,13.10
2019-01-08T10:51:36.326Z,13.00
2019-01-08T10:52:41.451Z,12.80
2019-01-08T10:53:46.552Z,12.70
2019-01-08T10:54:51.685Z,12.50
2019-01-08T10:55:56.714Z,12.30
2019-01-08T10:57:01.887Z,12.30
2019-01-08T10:58:07.045Z,12.40
2019-01-08T10:59:12.165Z,12.40
2019-01-08T11:00:17.301Z,12.40
2019-01-08T11:01:22.421Z,12.40
2019-01-08T11:02:27.526Z,12.40
2019-01-08T11:03:32.643Z,12.30
2019-01-08T11:04:37.765Z,12.30
2019-01-08T11:05:42.892Z,12.20
2019-01-08T11:06:48.011Z,12.10
2019-01-08T11:07:53.136Z,12.10
2019-01-08T11:08:58.238Z,12.00
2019-01-08T11:10:03.383Z,12.00
2019-01-08T11:11:08.875Z,11.90
2019-01-08T11:12:13.970Z,11.90
2019-01-08T11:13:19.017Z,11.90
2019-01-08T11:14:24.155Z,11.90
2019-01-08T11:15:29.329Z,11.90
2019-01-08T11:16:34.349Z,11.90
2019-01-08T11:17:39.552Z,11.90
2019-01-08T11:18:44.586Z,11.90
2019-01-08T11:19:49.642Z,11.80
2019-01-08T11:20:54.684Z,11.70
2019-01-08T11:21:59.803Z,11.60
2019-01-08T11:23:04.909Z,11.40
2019-01-08T11:24:10.108Z,11.40
2019-01-08T11:25:15.172Z,11.30
2019-01-08T11:26:20.307Z,11.20
2019-01-08T11:27:25.368Z,11.10
2019-01-08T11:28:30.412Z,11.00
2019-01-08T11:29:35.524Z,10.90
2019-01-08T11:30:40.642Z,10.90
2019-01-08T11:31:49.067Z,10.80
2019-01-08T11:32:52.535Z,10.70
2019-01-08T11:33:57.615Z,10.70
2019-01-08T11:35:02.845Z,10.50
2019-01-08T11:36:07.957Z,10.50
2019-01-08T11:37:12.980Z,10.40
2019-01-08T11:38:18.162Z,10.30
2019-01-08T11:39:23.257Z,10.20
2019-01-08T11:40:28.361Z,10.10
2019-01-08T11:41:34.490Z,10.10
2019-01-08T11:42:39.517Z,10.00
2019-01-08T11:43:44.689Z,10.00
2019-01-08T11:44:49.733Z,10.00
2019-01-08T11:45:54.846Z,10.00
2019-01-08T11:46:59.951Z,10.10
2019-01-08T11:48:06.052Z,10.10
2019-01-08T11:49:11.218Z,10.10
2019-01-08T11:50:16.304Z,10.10
2019-01-08T11:51:21.441Z,10.00
2019-01-08T11:52:29.317Z,9.90
2019-01-08T11:53:34.435Z,9.90
2019-01-08T11:54:41.231Z,9.80
2019-01-08T11:55:46.275Z,9.80
2019-01-08T11:56:51.523Z,9.80
2019-01-08T11:57:56.575Z,9.70
2019-01-08T11:59:01.671Z,9.70
2019-01-08T12:00:08.889Z,9.70
2019-01-08T12:01:13.995Z,9.70
2019-01-08T12:02:19.098Z,9.70
2019-01-08T12:03:24.307Z,9.70
2019-01-08T12:04:29.400Z,9.70
2019-01-08T12:05:34.408Z,9.70
2019-01-08T12:06:39.564Z,9.60
2019-01-08T12:07:44.762Z,9.60
2019-01-08T12:08:49.768Z,9.60
2019-01-08T12:09:54.788Z,9.60
2019-01-08T12:10:59.872Z,9.60
2019-01-08T12:12:04.988Z,9.60
2019-01-08T12:13:10.022Z,9.50
2019-01-08T12:14:15.029Z,9.50
2019-01-08T12:15:20.138Z,9.50
2019-01-08T12:16:25.178Z,9.60
2019-01-08T12:17:30.331Z,9.60
2019-01-08T12:18:35.458Z,9.60
2019-01-08T12:19:40.583Z,9.60
2019-01-08T12:20:45.675Z,9.60
2019-01-08T12:21:50.857Z,9.60
2019-01-08T12:22:55.975Z,9.60
2019-01-08T12:24:00.979Z,9.60
2019-01-08T12:25:07.068Z,9.60
2019-01-08T12:26:12.070Z,9.60
2019-01-08T12:27:17.208Z,9.60
2019-01-08T12:28:22.413Z,9.70
2019-01-08T12:29:27.564Z,9.80
2019-01-08T12:30:32.682Z,10.00
2019-01-08T12:31:37.788Z,10.10
2019-01-08T12:32:42.908Z,10.30
2019-01-08T12:33:47.920Z,10.50
2019-01-08T12:34:52.948Z,10.60
2019-01-08T12:35:58.054Z,10.80
2019-01-08T12:37:03.072Z,10.80
2019-01-08T12:38:08.157Z,10.90
2019-01-08T12:39:13.197Z,11.00
2019-01-08T12:40:18.232Z,11.00
2019-01-08T12:41:23.305Z,11.10
2019-01-08T12:42:28.373Z,11.20
2019-01-08T12:43:33.491Z,11.20
2019-01-08T12:44:38.577Z,11.20
2019-01-08T12:45:43.708Z,11.20
2019-01-08T12:46:48.824Z,11.10
2019-01-08T12:47:53.986Z,11.20
2019-01-08T12:48:59.105Z,11.10
2019-01-08T12:50:04.511Z,11.10
2019-01-08T12:51:09.769Z,11.10
2019-01-08T12:52:14.855Z,11.10
2019-01-08T12:53:21.532Z,11.10
2019-01-08T12:54:26.653Z,11.10
2019-01-08T12:55:31.780Z,11.00
2019-01-08T12:56:37.021Z,11.00
2019-01-08T12:57:42.140Z,11.00
2019-01-08T12:58:47.177Z,10.90
2019-01-08T12:59:52.261Z,10.80
2019-01-08T13:00:57.418Z,10.80
2019-01-08T13:02:02.574Z,10.70
2019-01-08T13:03:07.692Z,10.60
2019-01-08T13:04:12.820Z,10.60
2019-01-08T13:05:17.965Z,10.50
2019-01-08T13:06:23.081Z,10.40
2019-01-08T13:07:28.124Z,10.30
2019-01-08T13:08:33.295Z,10.20
2019-01-08T13:09:38.460Z,10.10
2019-01-08T13:10:43.577Z,10.10
2019-01-08T13:11:48.660Z,10.00
2019-01-08T13:12:53.769Z,9.90
2019-01-08T13:13:58.793Z,9.90
2019-01-08T13:15:03.895Z,9.80
2019-01-08T13:16:08.997Z,9.70
2019-01-08T13:17:14.117Z,9.70
2019-01-08T13:18:19.247Z,9.60
2019-01-08T13:19:24.340Z,9.50
2019-01-08T13:20:29.588Z,9.40
2019-01-08T13:21:34.672Z,9.30
2019-01-08T13:22:39.760Z,9.20
2019-01-08T13:23:44.879Z,9.00
2019-01-08T13:24:49.960Z,8.90
2019-01-08T13:25:55.084Z,8.90
2019-01-08T13:27:00.393Z,8.80
2019-01-08T13:28:06.476Z,8.70
2019-01-08T13:29:11.604Z,8.70
2019-01-08T13:30:16.731Z,8.60
2019-01-08T13:31:21.825Z,8.60
2019-01-08T13:32:26.922Z,8.60
2019-01-08T13:33:32.027Z,8.50
2019-01-08T13:34:37.131Z,8.50
2019-01-08T13:35:42.303Z,8.40
2019-01-08T13:36:47.416Z,8.40
2019-01-08T13:37:52.637Z,8.40
2019-01-08T13:38:57.733Z,8.40
2019-01-08T13:40:02.877Z,8.40
2019-01-08T13:41:08.176Z,8.30
2019-01-08T13:42:13.335Z,8.30
2019-01-08T13:43:18.467Z,8.20
2019-01-08T13:44:23.617Z,8.20
2019-01-08T13:45:28.713Z,8.20
2019-01-08T13:46:34.093Z,8.20
2019-01-08T13:47:39.259Z,8.20
2019-01-08T13:48:44.280Z,8.20
2019-01-08T13:49:49.477Z,8.20
2019-01-08T13:50:54.565Z,8.20
2019-01-08T13:51:59.656Z,8.20
2019-01-08T13:53:04.736Z,8.20
2019-01-08T13:54:10.071Z,8.20
2019-01-08T13:55:15.131Z,8.20
2019-01-08T13:56:20.228Z,8.30
2019-01-08T13:57:25.374Z,8.30
2019-01-08T13:58:30.589Z,8.20
2019-01-08T13:59:35.725Z,8.30
2019-01-08T14:00:40.950Z,8.20
2019-01-08T14:01:46.104Z,8.20
2019-01-08T14:02:52.255Z,8.20
2019-01-08T14:03:57.404Z,8.20
2019-01-08T14:05:02.428Z,8.20
2019-01-08T14:06:07.712Z,8.30
2019-01-08T14:07:13.221Z,8.30
2019-01-08T14:08:18.579Z,8.30
2019-01-08T14:09:23.808Z,8.30
2019-01-08T14:10:28.996Z,8.30
2019-01-08T14:11:35.274Z,8.30
2019-01-08T14:12:40.479Z,8.30
2019-01-08T14:13:45.609Z,8.30
2019-01-08T14:14:50.716Z,8.30
2019-01-08T14:15:55.790Z,8.20
2019-01-08T14:17:01.000Z,8.20
2019-01-08T14:18:06.090Z,8.20
2019-01-08T14:19:12.400Z,8.20
2019-01-08T14:20:17.484Z,8.10
2019-01-08T14:21:22.531Z,8.20
2019-01-08T14:22:27.572Z,8.10
2019-01-08T14:23:32.584Z,8.10
2019-01-08T14:24:37.693Z,8.10
2019-01-08T14:25:42.785Z,8.00
2019-01-08T14:26:47.942Z,8.00
2019-01-08T14:27:54.158Z,8.00
2019-01-08T14:28:59.295Z,7.90
2019-01-08T14:30:04.922Z,7.90
2019-01-08T14:31:12.226Z,7.90
2019-01-08T14:32:17.487Z,7.80
2019-01-08T14:33:22.627Z,7.80
2019-01-08T14:34:27.740Z,7.80
2019-01-08T14:35:32.829Z,7.80
2019-01-08T14:36:39.037Z,7.70
2019-01-08T14:37:44.242Z,7.80
2019-01-08T14:38:49.375Z,7.70
2019-01-08T14:39:54.572Z,7.70
2019-01-08T14:40:59.671Z,7.70
2019-01-08T14:42:06.633Z,7.70
2019-01-08T14:43:14.199Z,7.70
2019-01-08T14:44:18.509Z,7.70
2019-01-08T14:45:23.641Z,7.70
2019-01-08T14:46:28.810Z,7.60